Latest Weather Observations for Holmes Reef

IDQ60801

Issued at 10:32 pm EST Wednesday 1 July 2015 (issued every 30 minutes, with the page automatically refreshed every 10 minutes)

About weather observations | Map of weather stations | Latest weather observations for QLD | Other Formats
Station Details ID: 200732 Name: HOLMES REEF Lat: -16.47 Lon: 147.87 Height: 1.9 m
Data from the previous 72 hours. | See also: Recent months at Holmes Reef
Date/Time
EST
Temp
°C
App
Temp
°C
Dew
Point
Rel
Hum
%
Delta-T
°C
Wind Press
QNH
hPa
Press
MSL
hPa
Rain
since 9 am
mm
Dir
 
Spd
km/h
Gust
km/h
Spd
kts
Gust
kts
01/10:30pm 24.3 - - - - ESE 41 50 22 27 1019.1 - -
01/10:15pm 24.4 - - - - SE 39 41 21 22 1019.2 1018.9 -
01/10:00pm 23.8 - - - - SE 44 54 24 29 1019.3 - -
01/09:30pm 24.8 - - - - ESE 41 46 22 25 1019.1 - -
01/09:15pm 24.7 - - - - ESE 43 - 23 - - 1018.7 -
01/09:00pm 24.8 - - - - ESE 37 43 20 23 1018.9 - -
01/08:30pm 24.3 - - - - ESE 43 50 23 27 1018.8 - -
01/08:15pm 24.1 - - - - E 35 - 19 - - 1018.5 -
01/08:00pm 24.4 - - - - ESE 41 48 22 26 1018.5 - -
01/07:30pm 24.8 - - - - SE 37 43 20 23 1018.2 - -
01/07:15pm 24.6 - - - - ESE 37 - 20 - - 1017.7 -
01/07:00pm 24.8 - - - - SE 39 44 21 24 1017.9 - -
01/06:30pm 24.7 - - - - SE 43 50 23 27 1017.5 - -
01/06:15pm 24.7 - - - - ESE 39 - 21 - - 1017.1 -
01/05:30pm 24.6 - - - - SE 39 44 21 24 1017.1 - -
01/05:15pm 24.9 - - - - SE 39 - 21 - - 1016.7 -
01/05:00pm 25.2 - - - - SE 39 44 21 24 1016.9 - -
01/04:30pm 24.5 - - - - SE 37 43 20 23 1016.6 - -
01/04:15pm 24.6 - - - - SE 39 - 21 - - 1016.2 -
01/04:00pm 24.9 - - - - SE 37 43 20 23 1016.5 - -
01/03:30pm 24.7 - - - - SE 41 44 22 24 1016.6 - -
01/03:15pm 24.9 - - - - SE 39 - 21 - - 1016.3 -
01/03:00pm 24.8 - - - - SE 41 46 22 25 1016.8 - -
01/02:30pm 24.7 - - - - SE 41 44 22 24 1016.9 - -
01/02:15pm 24.8 - - - - SE 39 - 21 - - 1016.6 -
01/02:00pm 24.6 - - - - SE 39 44 21 24 1017.0 - -
01/01:30pm 24.7 - - - - SE 41 46 22 25 1017.2 - -
01/01:15pm 24.7 - - - - SE 39 - 21 - - 1017.1 -
01/01:00pm 24.8 - - - - SE 39 44 21 24 1017.6 - -
01/12:30pm 24.8 - - - - SE 39 46 21 25 1018.0 - -
01/12:15pm 24.5 - - - - SE 41 - 22 - - 1017.9 -
01/12:00pm 24.5 - - - - SE 41 46 22 25 1018.3 - -
01/11:30am 24.6 - - - - SE 41 46 22 25 1018.7 - -
01/11:15am 24.7 - - - - SE 41 - 22 - - 1018.6 -
01/11:00am 24.7 - - - - SE 41 48 22 26 1019.0 - -
01/10:30am 24.6 - - - - SE 41 46 22 25 1019.1 - -
01/10:15am 24.6 - - - - SE 41 - 22 - - 1018.9 -
01/10:00am 24.6 - - - - SE 41 46 22 25 1019.3 - -
01/09:30am 24.7 - - - - ESE 43 46 23 25 1019.4 - -
01/09:15am 24.9 - - - - ESE 43 - 23 - - 1019.0 -
01/09:00am 24.7 - - - - ESE 41 46 22 25 1019.3 - -
01/08:30am 24.8 - - - - ESE 44 50 24 27 1019.1 - -
01/08:15am 24.6 - - - - ESE 44 - 24 - - 1018.6 -
01/08:00am 24.8 - - - - SE 43 50 23 27 1018.8 - -
01/07:30am 24.4 - - - - SE 43 54 23 29 1018.5 - -
01/07:15am 24.1 - - - - SE 44 - 24 - - 1018.2 -
01/07:00am 24.4 - - - - ESE 43 50 23 27 1018.3 - -
01/06:30am 24.6 - - - - SE 43 48 23 26 1018.2 - -
01/06:15am 24.7 - - - - SE 41 - 22 - - 1017.8 -
01/06:00am 24.6 - - - - SE 43 48 23 26 1017.9 - -
01/05:30am 24.7 - - - - SE 41 46 22 25 1017.6 - -
01/05:15am 23.7 - - - - SE 35 - 19 - - 1017.5 -
01/05:00am 23.7 - - - - ESE 39 44 21 24 1017.8 - -
01/04:30am 22.9 - - - - ESE 44 52 24 28 1017.8 - -
01/04:15am 23.5 - - - - ESE 46 - 25 - - 1017.4 -
01/04:00am 24.5 - - - - SE 39 46 21 25 1017.5 - -
01/03:30am 24.3 - - - - SE 41 46 22 25 1017.5 - -
01/03:15am 24.0 - - - - SE 41 - 22 - - 1017.2 -
01/03:00am 23.3 - - - - SE 48 61 26 33 1017.6 - -
01/02:30am 24.3 - - - - ESE 43 50 23 27 1017.5 - -
01/02:15am 23.9 - - - - SE 37 - 20 - - 1017.3 -
01/02:00am 24.2 - - - - ESE 41 48 22 26 1017.7 - -
01/01:30am 23.8 - - - - ESE 39 44 21 24 1018.0 - -
01/01:15am 23.4 - - - - ESE 41 - 22 - - 1017.9 -
01/01:00am 23.2 - - - - ESE 48 54 26 29 1018.2 - -
01/12:30am 24.0 - - - - E 41 48 22 26 1018.2 - -
01/12:28am 24.4 - - - - E 39 48 21 26 1018.2 - -
01/12:15am 24.1 - - - - SE 41 - 22 - - 1017.9 -
 
Date/Time
EST
Temp
°C
App
Temp
°C
Dew
Point
Rel
Hum
%
Delta-T
°C
Wind Press
QNH
hPa
Press
MSL
hPa
Rain
since 9 am
mm
Dir
 
Spd
km/h
Gust
km/h
Spd
kts
Gust
kts
30/11:30pm 23.0 - - - - ESE 46 54 25 29 1018.5 - -
30/11:15pm 23.7 - - - - SE 44 - 24 - - 1018.3 -
30/11:00pm 24.8 - - - - SE 37 48 20 26 1018.6 - -
30/10:30pm 23.7 - - - - SE 44 56 24 30 1019.0 - -
30/10:15pm 24.9 - - - - ESE 39 - 21 - - 1018.7 -
30/10:00pm 24.5 - - - - SE 30 43 16 23 1018.9 - -
30/09:46pm 24.6 - - - - SE 37 56 20 30 1018.9 - -
30/09:30pm 25.0 - - - - SE 35 43 19 23 1019.1 - -
30/09:15pm 24.8 - - - - SE 37 - 20 - - 1018.7 -
30/09:00pm 24.8 - - - - SE 37 43 20 23 1018.9 - -
30/08:30pm 24.9 - - - - SE 37 43 20 23 1018.8 - -
30/08:15pm 24.9 - - - - ESE 39 - 21 - - 1018.3 -
30/08:00pm 25.1 - - - - ESE 39 44 21 24 1018.5 - -
30/07:30pm 24.8 - - - - ESE 41 46 22 25 1018.1 - -
30/07:15pm 24.8 - - - - ESE 41 - 22 - - 1017.7 -
30/07:00pm 25.0 - - - - SE 39 46 21 25 1017.9 - -
30/06:30pm 24.8 - - - - SE 39 44 21 24 1017.6 - -
30/06:15pm 24.9 - - - - SE 37 - 20 - - 1017.1 -
30/06:00pm 25.0 - - - - ESE 37 46 20 25 1017.4 - -
30/05:30pm 24.9 - - - - SE 37 43 20 23 1017.2 - -
30/05:15pm 24.9 - - - - SE 37 - 20 - - 1016.9 -
30/05:00pm 25.1 - - - - SE 37 41 20 22 1017.1 - -
30/04:30pm 25.1 - - - - SE 35 41 19 22 1016.8 - -
30/04:15pm 25.0 - - - - SE 33 - 18 - - 1016.4 -
30/04:00pm 25.1 - - - - ESE 33 39 18 21 1016.8 - -
30/03:30pm 25.1 - - - - SE 35 41 19 22 1016.6 - -
30/03:15pm 25.2 - - - - ESE 35 - 19 - - 1016.3 -
30/03:00pm 25.1 - - - - SE 35 43 19 23 1016.7 - -
30/02:30pm 25.1 - - - - ESE 35 41 19 22 1016.8 - -
30/02:15pm 25.2 - - - - ESE 37 - 20 - - 1016.5 -
30/02:00pm 25.2 - - - - ESE 35 41 19 22 1016.9 - -
30/01:30pm 25.2 - - - - ESE 33 43 18 23 1017.1 - -
30/01:15pm 25.0 - - - - ESE 37 - 20 - - 1017.0 -
30/01:00pm 25.3 - - - - ESE 37 41 20 22 1017.5 - -
30/12:30pm 25.2 - - - - ESE 37 43 20 23 1017.9 - -
30/12:15pm 25.2 - - - - E 37 - 20 - - 1017.8 -
30/12:00pm 25.2 - - - - E 39 46 21 25 1018.1 - -
30/11:30am 25.2 - - - - E 41 46 22 25 1018.4 - -
30/11:15am 25.1 - - - - E 41 - 22 - - 1018.2 -
30/11:00am 25.3 - - - - E 43 46 23 25 1018.5 - -
30/10:30am 25.3 - - - - E 39 46 21 25 1018.8 - -
30/10:15am 25.2 - - - - E 41 - 22 - - 1018.3 -
30/10:00am 25.3 - - - - E 43 48 23 26 1018.6 - -
30/09:30am 25.3 - - - - E 44 52 24 28 1018.7 - -
30/09:15am 25.2 - - - - E 48 - 26 - - 1018.4 -
30/09:00am 25.3 - - - - E 46 56 25 30 1018.5 - -
30/08:30am 25.1 - - - - E 46 56 25 30 1018.1 - -
30/08:15am 25.2 - - - - E 50 - 27 - - 1017.7 -
30/08:00am 25.0 - - - - E 46 56 25 30 1017.9 - -
30/07:30am 25.2 - - - - E 46 56 25 30 1017.5 - -
30/07:15am 25.0 - - - - E 44 - 24 - - 1017.1 -
30/07:00am 24.9 - - - - E 46 57 25 31 1017.2 - -
30/06:30am 24.7 - - - - E 44 52 24 28 1016.9 - -
30/06:15am 24.8 - - - - E 46 - 25 - - 1016.5 -
30/06:00am 24.9 - - - - E 44 54 24 29 1016.6 - -
30/05:30am 24.9 - - - - E 44 52 24 28 1016.6 - -
30/05:15am 25.1 - - - - E 46 - 25 - - 1016.2 -
30/05:00am 25.2 - - - - E 44 52 24 28 1016.4 - -
30/04:30am 25.2 - - - - E 46 56 25 30 1016.2 - -
30/04:15am 25.1 - - - - E 43 - 23 - - 1015.9 -
30/04:00am 25.0 - - - - E 44 52 24 28 1016.2 - -
30/03:30am 25.3 - - - - E 44 52 24 28 1016.2 - -
30/03:15am 25.1 - - - - E 46 - 25 - - 1015.8 -
30/03:00am 25.1 - - - - E 44 52 24 28 1016.2 - -
30/02:30am 25.1 - - - - E 44 50 24 27 1016.3 - -
30/02:15am 25.1 - - - - E 44 - 24 - - 1016.1 -
30/02:00am 25.2 - - - - E 41 48 22 26 1016.4 - -
30/01:30am 25.2 - - - - E 39 46 21 25 1016.6 - -
30/01:15am 25.0 - - - - E 39 - 21 - - 1016.4 -
30/01:00am 25.3 - - - - E 43 50 23 27 1016.8 - -
30/12:30am 25.3 - - - - E 41 46 22 25 1017.0 - -
30/12:15am 25.4 - - - - E 41 - 22 - - 1016.8 -
30/12:00am 25.3 - - - - E 41 46 22 25 1017.0 - -
 
Date/Time
EST
Temp
°C
App
Temp
°C
Dew
Point
Rel
Hum
%
Delta-T
°C
Wind Press
QNH
hPa
Press
MSL
hPa
Rain
since 9 am
mm
Dir
 
Spd
km/h
Gust
km/h
Spd
kts
Gust
kts
29/11:30pm 25.3 - - - - E 44 50 24 27 1017.3 - -
29/11:15pm 25.4 - - - - E 46 - 25 - - 1017.0 -
29/11:00pm 25.5 - - - - E 43 52 23 28 1017.5 - -
29/10:30pm 25.5 - - - - E 44 54 24 29 1017.5 - -
29/10:15pm 25.4 - - - - E 44 - 24 - - 1017.3 -
29/10:00pm 25.5 - - - - E 44 52 24 28 1017.6 - -
29/09:30pm 25.5 - - - - E 44 50 24 27 1017.6 - -
29/09:15pm 25.4 - - - - E 46 - 25 - - 1017.3 -
29/09:00pm 25.5 - - - - E 48 56 26 30 1017.5 - -
29/08:30pm 25.2 - - - - E 43 48 23 26 1017.4 - -
29/08:15pm 25.3 - - - - E 41 - 22 - - 1017.0 -
29/08:00pm 25.2 - - - - E 43 48 23 26 1017.4 - -
29/07:30pm 25.3 - - - - E 41 48 22 26 1017.2 - -
29/07:15pm 24.6 - - - - E 30 - 16 - - 1016.8 -
29/07:00pm 24.1 - - - - E 28 33 15 18 1016.9 - -
29/06:30pm 23.3 - - - - ENE 26 32 14 17 1016.6 - -
29/06:15pm 22.6 - - - - ENE 30 - 16 - - 1016.3 -
29/06:00pm 22.2 - - - - NE 39 48 21 26 1016.7 - -
29/05:30pm 21.8 - - - - NNE 39 50 21 27 1016.6 - -
29/05:24pm 21.8 - - - - NNE 41 57 22 31 1016.7 - -
29/05:15pm 21.9 - - - - NE 56 - 30 - - 1016.6 -
29/05:00pm 22.5 - - - - ENE 61 70 33 38 1016.6 - -
29/04:49pm 22.0 - - - - ENE 61 69 33 37 1016.6 - -
29/04:41pm 23.0 - - - - ENE 41 59 22 32 1016.5 - -
29/04:30pm 22.6 - - - - ENE 43 48 23 26 1016.4 - -
29/04:15pm 22.5 - - - - ENE 46 - 25 - - 1016.1 -
29/04:00pm 22.5 - - - - ENE 43 52 23 28 1016.3 - -
29/03:30pm 23.2 - - - - ENE 46 52 25 28 1016.2 - -
29/03:15pm 22.3 - - - - ENE 48 - 26 - - 1016.0 -
29/02:15pm 24.1 - - - - E 44 - 24 - - 1015.8 -
29/01:15pm 23.2 - - - - ENE 35 - 19 - - 1016.5 -
29/12:15pm 24.2 - - - - E 37 - 20 - - 1017.0 -
29/11:15am 25.0 - - - - E 20 - 11 - - 1017.9 -
29/10:15am 24.9 - - - - E 24 - 13 - - 1018.3 -
29/09:15am 23.5 - - - - NNW 6 - 3 - - 1018.6 -
29/08:15am 23.5 - - - - E 15 - 8 - - 1018.4 -
29/07:15am 24.0 - - - - ESE 20 - 11 - - 1017.8 -
29/06:15am 24.2 - - - - E 22 - 12 - - 1017.1 -
29/05:15am 23.1 - - - - E 28 - 15 - - 1016.9 -
29/04:15am 22.7 - - - - E 33 - 18 - - 1016.4 -
29/03:15am 24.5 - - - - E 24 - 13 - - 1016.6 -
29/02:15am 24.2 - - - - E 28 - 15 - - 1016.7 -
29/01:15am 24.6 - - - - E 32 - 17 - - 1017.4 -
29/12:15am 24.0 - - - - ESE 28 - 15 - - 1017.6 -
 
Date/Time
EST
Temp
°C
App
Temp
°C
Dew
Point
Rel
Hum
%
Delta-T
°C
Wind Press
QNH
hPa
Press
MSL
hPa
Rain
since 9 am
mm
Dir
 
Spd
km/h
Gust
km/h
Spd
kts
Gust
kts
28/11:15pm 23.7 - - - - SE 35 - 19 - - 1018.1 -

Other Formats:

Comma delimited format used in spreadsheet applications
http://www.bom.gov.au/fwo/IDQ60801/IDQ60801.94289.axf

JavaScript Object Notation format (JSON) in row-major order
http://www.bom.gov.au/fwo/IDQ60801/IDQ60801.94289.json